Time;durP1;ratioP1;P1;durP2;ratioP2;P2;SDS_P1;SDS_P2;PMS_P1;PMS_P2;Temp;Humidity;BMP_temperature;BMP_pressure;BME280_temperature;BME280_humidity;BME280_pressure;Samples;Min_cycle;Max_cycle;Signal;HPM_P1;HPM_P2
2021/01/20 00:02:15;;;;;;;34.30;16.83;;;;;;;-1.39;62.98;95111.03;5153036;27;20168;-77
2021/01/20 00:04:40;;;;;;;32.63;16.27;;;;;;;-1.26;61.79;95117.56;5156792;27;20183;-77
2021/01/20 00:07:06;;;;;;;39.60;16.93;;;;;;;-1.23;62.03;95126.72;5156634;27;20616;-77
2021/01/20 00:09:31;;;;;;;33.13;15.80;;;;;;;-1.07;61.15;95120.38;5156408;27;20172;-77
2021/01/20 00:11:57;;;;;;;31.97;14.97;;;;;;;-1.06;60.85;95114.13;5156503;27;20176;-77
2021/01/20 00:14:22;;;;;;;31.03;15.83;;;;;;;-1.61;62.70;95131.47;5156189;27;20176;-77
2021/01/20 00:16:48;;;;;;;27.80;14.97;;;;;;;-1.54;62.62;95126.75;5156488;27;20172;-76
2021/01/20 00:19:13;;;;;;;32.43;16.07;;;;;;;-1.75;62.71;95110.25;5156176;27;20180;-77
2021/01/20 00:21:39;;;;;;;38.87;16.27;;;;;;;-1.60;63.37;95115.47;5156416;27;20280;-77
2021/01/20 00:24:05;;;;;;;31.07;16.13;;;;;;;-1.26;61.49;95120.16;5155919;27;20173;-77
2021/01/20 00:26:31;;;;;;;40.33;19.48;;;;;;;-1.60;62.09;95125.97;5156137;27;20247;-77
2021/01/20 00:28:56;;;;;;;35.17;16.93;;;;;;;-1.41;61.65;95128.81;5155966;27;20179;-77
2021/01/20 00:31:22;;;;;;;35.23;16.17;;;;;;;-1.18;60.86;95122.28;5156200;27;20237;-76
2021/01/20 00:33:47;;;;;;;33.13;16.17;;;;;;;-1.02;60.16;95136.09;5156146;27;20165;-76
2021/01/20 00:36:13;;;;;;;37.37;17.03;;;;;;;-1.37;61.36;95124.63;5155975;27;20568;-77
2021/01/20 00:38:38;;;;;;;31.37;16.07;;;;;;;-1.12;60.41;95136.16;5155925;27;20216;-77
2021/01/20 00:41:04;;;;;;;32.63;15.23;;;;;;;-0.90;59.60;95127.94;5155751;27;20203;-77
2021/01/20 00:43:29;;;;;;;34.30;15.93;;;;;;;-0.90;59.53;95128.75;5136611;27;20188;-78
2021/01/20 00:45:56;;;;;;;33.50;16.97;;;;;;;-1.11;59.64;95120.16;5155798;27;20172;-78
2021/01/20 00:48:21;;;;;;;33.30;17.20;;;;;;;-0.90;59.13;95127.94;5155751;27;20667;-75
2021/01/20 00:50:47;;;;;;;32.83;15.47;;;;;;;-0.91;59.08;95131.63;5155688;27;20251;-77
2021/01/20 00:53:12;;;;;;;31.43;15.17;;;;;;;-0.95;58.72;95105.19;5155992;27;20173;-79
2021/01/20 00:55:38;;;;;;;27.83;13.97;;;;;;;-0.82;58.76;95120.34;5155767;27;20168;-76
2021/01/20 00:58:03;;;;;;;27.17;13.67;;;;;;;-0.68;57.96;95125.78;5155167;27;20199;-76
2021/01/20 01:00:29;;;;;;;26.17;14.33;;;;;;;-0.86;59.29;95127.16;5155539;27;20601;-76
2021/01/20 01:02:54;;;;;;;35.43;16.50;;;;;;;-0.87;59.56;95128.22;5155206;27;20255;-76
2021/01/20 01:05:20;;;;;;;30.03;14.37;;;;;;;-0.89;59.17;95130.31;5155423;27;20165;-76
2021/01/20 01:07:45;;;;;;;28.73;14.07;;;;;;;-1.01;59.21;95132.47;5135884;27;20212;-76
2021/01/20 01:10:11;;;;;;;30.20;15.67;;;;;;;-0.76;58.48;95128.19;5155492;27;20209;-78
2021/01/20 01:12:36;;;;;;;30.43;13.93;;;;;;;-0.76;58.14;95134.22;5154955;27;20575;-78
2021/01/20 01:15:04;;;;;;;28.67;14.70;;;;;;;-0.74;58.22;95128.69;5154056;27;20228;-76
2021/01/20 01:17:29;;;;;;;24.80;13.27;;;;;;;-0.80;58.36;95128.72;5155235;27;20189;-77
2021/01/20 01:19:55;;;;;;;28.33;13.40;;;;;;;-0.84;58.67;95130.31;5155183;27;20168;-77
2021/01/20 01:22:20;;;;;;;29.03;13.60;;;;;;;-0.98;58.87;95131.13;5155266;27;20172;-76
2021/01/20 01:24:46;;;;;;;29.27;14.90;;;;;;;-1.09;59.80;95125.91;5154861;27;20213;-76
2021/01/20 01:27:11;;;;;;;30.17;15.57;;;;;;;-1.22;60.30;95129.09;5154906;27;20215;-77
2021/01/20 01:29:36;;;;;;;29.30;13.20;;;;;;;-1.25;60.52;95123.56;5154790;27;20196;-77
2021/01/20 01:32:02;;;;;;;30.27;13.90;;;;;;;-1.22;59.70;95105.50;5154846;27;20199;-77
2021/01/20 01:34:28;;;;;;;23.90;13.43;;;;;;;-1.75;61.49;95118.09;5154650;27;20179;-78
2021/01/20 01:36:53;;;;;;;31.03;13.43;;;;;;;-1.98;62.46;95105.50;5154865;27;20303;-77
2021/01/20 01:39:19;;;;;;;27.80;12.30;;;;;;;-1.47;61.03;95090.59;5154479;27;20172;-77
2021/01/20 01:41:44;;;;;;;21.90;11.70;;;;;;;-1.26;60.01;95083.50;5154900;27;20165;-77
2021/01/20 01:44:10;;;;;;;24.47;12.07;;;;;;;-1.26;59.48;95085.31;5154597;27;20173;-77
2021/01/20 01:46:36;;;;;;;27.80;11.98;;;;;;;-1.27;59.57;95094.25;5136383;27;20198;-77
2021/01/20 01:49:02;;;;;;;20.33;11.47;;;;;;;-1.25;59.49;95102.63;5154694;27;20173;-76
2021/01/20 01:51:27;;;;;;;27.67;13.13;;;;;;;-1.21;59.50;95104.44;5154361;27;20633;-75
2021/01/20 01:53:53;;;;;;;27.13;12.63;;;;;;;-1.10;59.35;95108.63;5154651;27;20172;-75
2021/01/20 01:56:18;;;;;;;22.73;11.47;;;;;;;-1.50;60.41;95113.91;5154166;27;20252;-75
2021/01/20 01:58:44;;;;;;;29.13;13.67;;;;;;;-1.44;60.65;95107.63;5154370;27;20176;-75
2021/01/20 02:01:10;;;;;;;24.37;12.27;;;;;;;-1.50;61.56;95108.69;5154270;27;20732;-76
2021/01/20 02:03:36;;;;;;;26.75;13.90;;;;;;;-1.54;61.09;95107.63;5135968;27;20183;-76
2021/01/20 02:06:01;;;;;;;28.37;12.77;;;;;;;-1.77;61.93;95108.94;5154611;27;20576;-79
2021/01/20 02:08:27;;;;;;;29.70;12.60;;;;;;;-1.68;62.05;95115.25;5154849;27;20241;-77
2021/01/20 02:10:53;;;;;;;27.40;13.55;;;;;;;-1.61;61.16;95100.03;5136319;27;20250;-76
2021/01/20 02:13:30;;;;;;;23.48;12.27;;;;;;;-1.87;61.63;95100.03;5118553;27;20168;-76
2021/01/20 02:16:21;;;;;;;27.60;12.82;;;;;;;-2.04;62.59;95104.72;5135672;27;20255;-75
2021/01/20 02:18:51;;;;;;;29.13;13.60;;;;;;;-2.36;62.22;95115.38;5135560;27;20177;-75
2021/01/20 02:21:35;;;;;;;32.65;15.13;;;;;;;-2.58;63.68;95110.38;5135443;27;20539;-76
2021/01/20 02:24:08;;;;;;;27.05;13.82;;;;;;;-2.20;62.30;95100.50;5153835;27;20187;-75
2021/01/20 02:27:04;;;;;;;25.45;12.63;;;;;;;-1.93;62.05;95103.69;5118186;27;20172;-75
2021/01/20 02:29:55;;;;;;;27.35;13.48;;;;;;;-1.71;61.45;95105.28;5118395;27;20180;-76
2021/01/20 02:32:21;;;;;;;24.17;12.50;;;;;;;-1.60;60.99;95109.47;5135681;27;20160;-75
2021/01/20 02:34:47;;;;;;;29.30;14.87;;;;;;;-1.70;61.57;95109.47;5153749;27;20669;-77
2021/01/20 02:37:12;;;;;;;28.93;14.50;;;;;;;-1.97;61.31;95110.47;5153683;27;20216;-75
2021/01/20 02:39:38;;;;;;;33.60;14.60;;;;;;;-2.04;62.12;95096.88;5117967;27;20180;-76
2021/01/20 02:42:06;;;;;;;23.23;12.13;;;;;;;-1.73;60.96;95100.31;5117403;27;20183;-76
2021/01/20 02:44:38;;;;;;;25.30;11.68;;;;;;;-1.63;60.75;95099.50;5117624;27;20195;-75
2021/01/20 02:47:05;;;;;;;28.67;13.57;;;;;;;-1.67;60.79;95082.78;5153752;27;20204;-76
2021/01/20 02:49:30;;;;;;;24.30;12.80;;;;;;;-1.64;60.84;95105.78;5135197;27;20168;-77
2021/01/20 02:52:01;;;;;;;20.77;10.93;;;;;;;-1.52;59.99;95106.31;5120973;27;20247;-77
2021/01/20 02:54:27;;;;;;;27.15;12.50;;;;;;;-1.63;60.46;95113.41;5134624;27;20172;-76
2021/01/20 02:56:52;;;;;;;26.00;11.87;;;;;;;-1.61;60.74;95113.91;5122767;27;20173;-76
2021/01/20 02:59:20;;;;;;;27.53;12.37;;;;;;;-1.69;61.01;95106.56;5136931;27;20165;-77
2021/01/20 03:01:54;;;;;;;21.48;10.95;;;;;;;-1.71;61.29;95106.06;5115670;27;20645;-76
2021/01/20 03:04:19;;;;;;;23.83;10.98;;;;;;;-1.80;61.69;95105.00;5138461;27;20248;-75
2021/01/20 03:06:46;;;;;;;21.13;11.33;;;;;;;-2.00;61.66;95113.63;5137893;27;20295;-76
2021/01/20 03:09:14;;;;;;;20.08;11.27;;;;;;;-1.80;60.97;95110.22;5129968;27;20188;-76
2021/01/20 03:11:50;;;;;;;22.55;10.40;;;;;;;-1.61;60.13;95092.19;5121673;27;20535;-75
2021/01/20 03:14:16;;;;;;;23.27;11.35;;;;;;;-1.45;59.68;95099.00;5131535;28;20183;-75
2021/01/20 03:16:41;;;;;;;21.15;11.63;;;;;;;-1.55;60.38;95099.00;5113912;28;20184;-76
2021/01/20 03:19:07;;;;;;;24.20;10.97;;;;;;;-1.41;59.15;95094.00;5132736;28;20551;-75
2021/01/20 03:21:33;;;;;;;27.43;11.87;;;;;;;-1.96;60.98;95082.50;5132364;28;20551;-75
2021/01/20 03:23:58;;;;;;;18.10;10.13;;;;;;;-1.73;60.43;95095.06;5132341;28;20171;-76
2021/01/20 03:26:24;;;;;;;27.70;12.10;;;;;;;-1.74;60.59;95100.56;5132002;28;20176;-76
2021/01/20 03:28:49;;;;;;;24.03;10.70;;;;;;;-1.52;59.68;95098.44;5132412;28;20176;-76
2021/01/20 03:31:15;;;;;;;21.17;10.30;;;;;;;-1.73;60.63;95105.53;5132188;28;20176;-76
2021/01/20 03:33:40;;;;;;;27.33;10.47;;;;;;;-1.75;60.67;95096.38;5132274;28;20294;-76
2021/01/20 03:36:06;;;;;;;16.77;9.53;;;;;;;-1.54;59.46;95111.03;5132309;28;20177;-76
2021/01/20 03:38:32;;;;;;;24.00;10.52;;;;;;;-1.36;58.68;95105.25;5134578;27;20213;-77
2021/01/20 03:40:57;;;;;;;16.27;10.03;;;;;;;-1.38;58.78;95104.72;5136677;27;20180;-77
2021/01/20 03:43:23;;;;;;;20.40;10.47;;;;;;;-1.27;58.45;95105.50;5136293;27;20177;-77
2021/01/20 03:45:48;;;;;;;18.90;10.33;;;;;;;-1.29;58.01;95104.19;5136487;27;20165;-76
2021/01/20 03:48:14;;;;;;;21.97;11.20;;;;;;;-1.48;58.87;95096.88;5136069;27;20204;-77
2021/01/20 03:50:39;;;;;;;17.30;9.67;;;;;;;-1.43;58.71;95109.97;5117644;27;20216;-77
2021/01/20 03:53:05;;;;;;;22.47;10.03;;;;;;;-1.56;59.26;95100.03;5135778;27;20169;-77
2021/01/20 03:55:30;;;;;;;16.67;9.67;;;;;;;-1.39;58.66;95111.03;5140330;27;20172;-76
2021/01/20 03:57:56;;;;;;;15.60;9.37;;;;;;;-1.40;58.59;95100.81;5144093;27;20165;-75
2021/01/20 04:00:21;;;;;;;19.77;10.63;;;;;;;-1.33;58.00;95109.19;5139396;27;20161;-76
2021/01/20 04:02:47;;;;;;;21.97;10.67;;;;;;;-1.47;58.42;95101.06;5140742;27;20181;-75
2021/01/20 04:05:13;;;;;;;22.63;10.50;;;;;;;-1.55;58.63;95085.91;5139147;27;20564;-77
2021/01/20 04:07:38;;;;;;;20.50;8.83;;;;;;;-1.44;58.45;95108.41;5140969;27;20196;-76
2021/01/20 04:10:07;;;;;;;17.30;9.77;;;;;;;-1.44;58.33;95097.94;5143599;27;20169;-75
2021/01/20 04:12:36;;;;;;;25.63;9.65;;;;;;;-1.37;58.75;95103.69;5137844;27;20222;-76
2021/01/20 04:15:06;;;;;;;37.83;14.65;;;;;;;-1.40;58.92;95098.19;5135070;27;20184;-73
2021/01/20 04:17:32;;;;;;;17.35;8.70;;;;;;;-1.33;58.27;95102.09;5138972;27;20264;-74
2021/01/20 04:19:57;;;;;;;19.80;9.50;;;;;;;-1.88;60.28;95100.28;5156016;27;20747;-75
2021/01/20 04:22:23;;;;;;;16.27;9.90;;;;;;;-1.58;59.05;95094.25;5156414;27;20664;-73
2021/01/20 04:24:48;;;;;;;16.37;9.73;;;;;;;-1.51;58.52;95107.13;5156251;27;20172;-75
2021/01/20 04:27:14;;;;;;;33.97;14.70;;;;;;;-1.52;58.98;95098.44;5155733;27;20196;-75
2021/01/20 04:29:39;;;;;;;15.27;9.03;;;;;;;-1.74;58.80;95114.44;5156324;27;20560;-75
2021/01/20 04:32:05;;;;;;;22.30;12.37;;;;;;;-1.66;59.61;95106.06;5155683;27;20175;-77
2021/01/20 04:34:33;;;;;;;17.20;9.50;;;;;;;-1.57;58.94;95129.91;5156138;27;20255;-74
2021/01/20 04:36:59;;;;;;;20.60;9.23;;;;;;;-1.57;59.47;95136.94;5155619;27;20212;-73
2021/01/20 04:39:24;;;;;;;19.13;9.93;;;;;;;-1.68;59.84;95129.13;5155995;27;20172;-74
2021/01/20 04:41:50;;;;;;;27.13;12.10;;;;;;;-1.80;60.42;95141.66;5141179;27;20625;-73
2021/01/20 04:44:15;;;;;;;21.17;9.60;;;;;;;-1.42;58.87;95139.56;5138896;27;20169;-75
2021/01/20 04:46:42;;;;;;;17.27;8.33;;;;;;;-1.70;60.29;95143.50;5138725;27;20174;-73
2021/01/20 04:49:08;;;;;;;17.20;9.55;;;;;;;-1.62;59.68;95146.38;5116433;27;20692;-73
2021/01/20 04:51:39;;;;;;;20.10;9.63;;;;;;;-1.76;59.94;95141.91;5139738;27;20192;-73
2021/01/20 04:54:04;;;;;;;19.67;9.68;;;;;;;-1.48;58.92;95157.13;5115879;27;20259;-72
2021/01/20 04:56:30;;;;;;;23.07;9.43;;;;;;;-1.43;58.54;95145.84;5154598;27;20197;-73
2021/01/20 04:58:55;;;;;;;19.23;9.63;;;;;;;-1.23;58.40;95155.56;5155408;27;20164;-73
2021/01/20 05:01:21;;;;;;;18.17;10.07;;;;;;;-1.41;59.03;95146.38;5137010;27;20165;-72
2021/01/20 05:03:47;;;;;;;19.20;9.50;;;;;;;-1.47;58.89;95176.22;5119551;27;20543;-73
2021/01/20 05:06:12;;;;;;;17.57;10.30;;;;;;;-1.42;58.69;95192.75;5136947;27;20217;-74
2021/01/20 05:08:38;;;;;;;23.00;9.93;;;;;;;-1.37;58.71;95177.03;5136700;27;20192;-73
2021/01/20 05:11:03;;;;;;;15.10;9.00;;;;;;;-1.27;58.56;95193.81;5136731;27;20228;-73
2021/01/20 05:13:29;;;;;;;19.13;10.40;;;;;;;-1.30;58.32;95200.34;5154778;27;20157;-77
2021/01/20 05:15:56;;;;;;;26.38;11.13;;;;;;;-1.37;58.92;95190.13;5155121;27;20178;-74
2021/01/20 05:18:21;;;;;;;15.75;9.05;;;;;;;-1.09;57.75;95177.53;5155198;27;20184;-73
2021/01/20 05:20:47;;;;;;;20.00;8.30;;;;;;;-1.08;57.65;95195.59;5155087;27;20220;-73
2021/01/20 05:23:12;;;;;;;16.47;9.57;;;;;;;-1.13;57.62;95181.72;5155096;27;20233;-73
2021/01/20 05:25:44;;;;;;;17.97;8.73;;;;;;;-1.02;57.35;95183.28;5154803;27;20176;-73
2021/01/20 05:28:23;;;;;;;17.42;9.43;;;;;;;-1.15;57.68;95170.72;5154831;27;20232;-73
2021/01/20 05:30:51;;;;;;;16.05;9.85;;;;;;;-1.09;57.59;95174.91;5154563;27;20172;-73
2021/01/20 05:33:19;;;;;;;21.52;10.48;;;;;;;-1.12;57.49;95178.06;5154782;27;20659;-73
2021/01/20 05:35:45;;;;;;;25.67;11.02;;;;;;;-1.24;58.35;95183.56;5154509;27;20195;-73
2021/01/20 05:38:11;;;;;;;22.07;10.07;;;;;;;-1.19;57.71;95191.41;5154559;27;20711;-73
2021/01/20 05:40:36;;;;;;;25.33;11.23;;;;;;;-1.24;57.83;95193.25;5154425;27;20558;-73
2021/01/20 05:43:02;;;;;;;19.47;9.37;;;;;;;-1.24;57.94;95188.81;5154657;27;20195;-73
2021/01/20 05:45:27;;;;;;;19.57;9.27;;;;;;;-1.11;57.63;95185.66;5135865;27;20576;-73
2021/01/20 05:48:19;;;;;;;16.67;9.50;;;;;;;-1.04;57.45;95184.63;5154429;27;20191;-74
2021/01/20 05:50:55;;;;;;;19.73;9.75;;;;;;;-1.02;57.30;95182.50;5131845;27;20268;-73
2021/01/20 05:53:21;;;;;;;19.98;9.80;;;;;;;-1.38;59.46;95193.00;5154910;27;20179;-73
2021/01/20 05:56:02;;;;;;;20.80;10.87;;;;;;;-1.33;59.11;95190.41;5135663;27;20334;-73
2021/01/20 05:58:38;;;;;;;23.15;11.32;;;;;;;-1.38;59.54;95193.00;5154253;27;20168;-73
2021/01/20 06:01:07;;;;;;;21.48;8.73;;;;;;;-1.37;59.17;95199.81;5135497;27;20598;-74
2021/01/20 06:03:33;;;;;;;24.23;10.80;;;;;;;-1.23;58.17;95203.50;5154194;27;20198;-73
2021/01/20 06:06:00;;;;;;;22.52;10.52;;;;;;;-1.29;59.05;95193.25;5154278;27;20225;-73
2021/01/20 06:08:25;;;;;;;20.42;9.85;;;;;;;-1.15;58.18;95200.34;5118566;27;20206;-73
2021/01/20 06:10:51;;;;;;;21.10;11.43;;;;;;;-1.01;58.01;95195.38;5135211;27;20172;-73
2021/01/20 06:13:16;;;;;;;21.80;10.40;;;;;;;-1.14;58.31;95193.25;5134828;27;20752;-73
2021/01/20 06:15:42;;;;;;;18.23;9.83;;;;;;;-0.96;57.57;95199.78;5153820;27;20164;-73
2021/01/20 06:18:08;;;;;;;35.87;12.63;;;;;;;-1.30;59.22;95208.19;5153935;27;20188;-73
2021/01/20 06:20:33;;;;;;;27.07;12.07;;;;;;;-1.33;58.58;95191.19;5118287;27;20247;-74
2021/01/20 06:22:59;;;;;;;22.57;10.70;;;;;;;-1.06;58.26;95192.75;5118374;27;20781;-72
2021/01/20 06:25:32;;;;;;;20.60;10.60;;;;;;;-1.20;58.55;95192.47;5118161;27;20253;-72
2021/01/20 06:28:11;;;;;;;23.67;11.73;;;;;;;-0.98;57.81;95194.81;5119152;27;20632;-73
2021/01/20 06:30:39;;;;;;;21.27;10.85;;;;;;;-1.15;58.43;95194.31;5136948;27;20179;-73
2021/01/20 06:33:06;;;;;;;21.45;11.52;;;;;;;-1.11;58.79;95214.50;5118286;27;20236;-72
2021/01/20 06:35:42;;;;;;;20.45;10.68;;;;;;;-1.26;60.04;95213.72;5135272;27;20182;-72
2021/01/20 06:38:28;;;;;;;22.70;10.60;;;;;;;-1.18;59.21;95215.78;5153348;27;20215;-73
2021/01/20 06:41:00;;;;;;;21.52;10.73;;;;;;;-1.25;59.63;95212.66;5145729;27;20656;-74
2021/01/20 06:43:52;;;;;;;22.60;11.30;;;;;;;-1.29;59.53;95227.31;5135592;27;20188;-73
2021/01/20 06:46:27;;;;;;;21.27;10.43;;;;;;;-1.10;58.98;95223.13;5131910;27;20663;-73
2021/01/20 06:48:53;;;;;;;26.67;10.98;;;;;;;-0.87;57.97;95225.22;5153183;27;20215;-73
2021/01/20 06:51:18;;;;;;;20.63;10.60;;;;;;;-0.71;57.31;95218.13;5153522;27;20182;-74
2021/01/20 06:54:12;;;;;;;19.33;10.97;;;;;;;-0.85;57.35;95233.59;5153403;27;20180;-73
2021/01/20 06:56:49;;;;;;;23.88;11.88;;;;;;;-1.03;58.45;95207.94;5153406;27;20259;-73
2021/01/20 06:59:18;;;;;;;23.52;12.02;;;;;;;-0.94;57.83;95234.41;5134697;27;20221;-73
2021/01/20 07:02:19;;;;;;;21.17;11.70;;;;;;;-1.01;58.03;95242.53;5153082;27;20164;-72
2021/01/20 07:04:45;;;;;;;21.55;11.90;;;;;;;-0.92;58.90;95224.44;5089550;28;20693;-73
2021/01/20 07:07:11;;;;;;;24.23;11.57;;;;;;;-0.64;56.81;95249.31;5089142;28;20210;-73
2021/01/20 07:09:57;;;;;;;36.33;15.93;;;;;;;-0.74;57.78;95236.22;5089410;28;20179;-74
2021/01/20 07:12:23;;;;;;;32.17;14.35;;;;;;;-0.64;57.02;95250.09;5088127;28;20194;-74
2021/01/20 07:14:52;;;;;;;27.27;13.80;;;;;;;-0.63;56.93;95264.00;5089560;28;20228;-73
2021/01/20 07:17:17;;;;;;;26.17;11.73;;;;;;;-0.63;57.78;95262.16;5072079;28;20252;-73
2021/01/20 07:19:49;;;;;;;21.77;11.80;;;;;;;-0.50;56.90;95265.31;5089448;28;20229;-73
2021/01/20 07:22:15;;;;;;;19.77;10.38;;;;;;;-0.40;56.79;95268.66;5072617;28;20178;-73
2021/01/20 07:24:40;;;;;;;23.63;11.43;;;;;;;-0.32;56.13;95264.72;5089435;28;20182;-75
2021/01/20 07:27:12;;;;;;;19.80;10.33;;;;;;;-0.35;55.34;95262.63;5089271;28;20716;-74
2021/01/20 07:29:39;;;;;;;20.17;10.88;;;;;;;-0.25;55.41;95257.34;5072603;28;20217;-74
2021/01/20 07:32:05;;;;;;;28.02;12.13;;;;;;;-0.09;55.74;95265.97;5088992;28;20269;-73
2021/01/20 07:34:37;;;;;;;21.80;11.43;;;;;;;-0.09;55.14;95268.59;5072411;28;20539;-74
2021/01/20 07:37:09;;;;;;;24.38;11.40;;;;;;;-0.18;55.19;95275.44;5088856;28;20225;-75
2021/01/20 07:39:35;;;;;;;26.80;11.25;;;;;;;-0.11;55.39;95262.84;5126413;27;20257;-75
2021/01/20 07:42:01;;;;;;;20.73;12.20;;;;;;;0.05;54.61;95272.19;5117465;27;20172;-75
2021/01/20 07:44:27;;;;;;;18.70;10.50;;;;;;;-0.06;56.00;95291.66;5152564;27;20164;-73
2021/01/20 07:46:59;;;;;;;23.42;11.73;;;;;;;-0.02;55.15;95288.25;5152931;27;20286;-73
2021/01/20 07:49:27;;;;;;;20.13;10.68;;;;;;;0.07;54.48;95291.13;5152421;27;20260;-72
2021/01/20 07:52:06;;;;;;;22.67;11.25;;;;;;;-0.15;56.03;95264.41;5152730;27;20163;-74
2021/01/20 07:54:42;;;;;;;19.08;10.43;;;;;;;0.21;55.02;95292.09;5152561;27;20649;-74
2021/01/20 07:57:09;;;;;;;18.85;11.25;;;;;;;0.24;54.57;95280.28;5152773;27;20207;-74
2021/01/20 07:59:35;;;;;;;29.08;12.20;;;;;;;0.22;54.41;95285.00;5152481;27;20176;-74
2021/01/20 08:02:12;;;;;;;19.17;10.73;;;;;;;0.23;54.78;95283.97;5152690;27;20179;-75
2021/01/20 08:04:38;;;;;;;21.75;10.68;;;;;;;0.38;54.15;95289.13;5133874;27;20643;-73
2021/01/20 08:07:04;;;;;;;23.23;10.27;;;;;;;0.26;54.63;95281.56;5152392;27;20227;-74
2021/01/20 08:09:44;;;;;;;19.30;9.55;;;;;;;0.54;54.10;95297.72;5152312;27;20176;-74
2021/01/20 08:12:30;;;;;;;22.30;11.75;;;;;;;0.29;54.88;95292.59;5133637;27;20272;-74
2021/01/20 08:14:56;;;;;;;20.40;10.07;;;;;;;0.21;54.33;95272.94;5151677;27;20668;-74
2021/01/20 08:17:21;;;;;;;26.25;10.38;;;;;;;0.38;53.76;95289.13;5133914;27;20177;-74
2021/01/20 08:19:48;;;;;;;22.27;11.77;;;;;;;0.45;53.64;95281.75;5133798;27;20177;-74
2021/01/20 08:22:17;;;;;;;23.23;11.10;;;;;;;0.39;53.32;95282.81;5134022;27;20176;-74
2021/01/20 08:24:55;;;;;;;22.83;11.32;;;;;;;0.41;54.11;95287.81;5154688;27;20317;-74
2021/01/20 08:27:30;;;;;;;22.05;10.38;;;;;;;0.58;53.55;95285.63;5156001;27;20204;-74
2021/01/20 08:29:57;;;;;;;21.77;9.85;;;;;;;0.40;53.91;95283.63;5156033;27;20168;-74
2021/01/20 08:32:23;;;;;;;17.70;10.20;;;;;;;0.28;54.67;95277.88;5156026;27;20659;-75
2021/01/20 08:34:49;;;;;;;21.33;11.33;;;;;;;0.60;53.47;95274.84;5137367;27;20180;-74
2021/01/20 08:37:36;;;;;;;23.30;11.57;;;;;;;0.73;53.64;95280.28;5155914;27;20295;-72
2021/01/20 08:40:04;;;;;;;20.88;9.63;;;;;;;0.77;52.86;95280.50;5155784;27;20168;-74
2021/01/20 08:42:32;;;;;;;23.55;9.88;;;;;;;0.71;54.20;95274.50;5155674;27;20221;-74
2021/01/20 08:45:13;;;;;;;20.40;9.32;;;;;;;0.91;53.76;95278.84;5155849;27;20175;-74
2021/01/20 08:47:52;;;;;;;22.38;11.07;;;;;;;0.86;53.42;95289.38;5155345;27;20728;-74
2021/01/20 08:50:31;;;;;;;20.90;11.10;;;;;;;1.00;53.55;95268.50;5155433;27;20175;-74
2021/01/20 08:53:10;;;;;;;20.10;10.90;;;;;;;1.15;53.01;95286.03;5136813;27;20175;-74
2021/01/20 08:55:53;;;;;;;32.47;11.43;;;;;;;1.37;52.33;95281.09;5155469;27;20195;-74
2021/01/20 08:58:25;;;;;;;22.23;9.95;;;;;;;1.84;51.02;95277.75;5155641;27;20282;-76
2021/01/20 09:01:02;;;;;;;24.30;10.43;;;;;;;1.99;50.45;95294.44;5155288;27;20187;-75
2021/01/20 09:03:36;;;;;;;32.17;10.50;;;;;;;2.18;50.31;95282.09;5138052;27;20172;-74
2021/01/20 09:06:04;;;;;;;22.40;10.30;;;;;;;2.55;49.24;95277.97;5154002;27;20176;-74
2021/01/20 09:08:31;;;;;;;21.83;10.07;;;;;;;2.78;48.03;95287.66;5155392;27;20203;-74
2021/01/20 09:11:00;;;;;;;24.02;10.80;;;;;;;2.58;48.34;95290.56;5136877;27;20256;-73
2021/01/20 09:13:25;;;;;;;25.00;11.27;;;;;;;2.67;47.87;95286.22;5155155;27;20177;-73
2021/01/20 09:15:51;;;;;;;20.73;11.17;;;;;;;2.71;47.90;95275.91;5155046;27;20661;-74
2021/01/20 09:18:17;;;;;;;19.40;10.20;;;;;;;2.83;47.74;95277.03;5155124;27;20172;-74
2021/01/20 09:20:43;;;;;;;22.85;10.43;;;;;;;2.96;47.04;95280.03;5155107;27;20224;-74
2021/01/20 09:23:09;;;;;;;28.83;12.30;;;;;;;3.11;47.31;95280.59;5154824;27;20262;-74
2021/01/20 09:25:34;;;;;;;22.83;10.67;;;;;;;3.24;47.44;95259.81;5154946;27;20184;-74
2021/01/20 09:28:00;;;;;;;22.90;11.20;;;;;;;3.45;46.81;95268.97;5154546;27;20200;-74
2021/01/20 09:30:26;;;;;;;24.13;12.03;;;;;;;3.16;46.67;95254.13;5154920;27;20255;-74
2021/01/20 09:32:51;;;;;;;18.57;8.90;;;;;;;3.64;46.17;95266.25;5154637;27;20164;-74
2021/01/20 09:35:17;;;;;;;29.77;11.40;;;;;;;3.51;46.22;95267.78;5153831;27;20173;-74
2021/01/20 09:37:43;;;;;;;21.43;10.80;;;;;;;3.42;46.03;95251.84;5154578;27;20791;-74
2021/01/20 09:40:10;;;;;;;29.80;11.90;;;;;;;3.72;46.09;95239.19;5135827;27;20188;-75
2021/01/20 09:42:36;;;;;;;30.08;12.70;;;;;;;3.97;46.12;95235.25;5154598;27;20234;-74
2021/01/20 09:45:03;;;;;;;21.70;11.40;;;;;;;4.07;45.96;95229.00;5154212;27;20544;-77
2021/01/20 09:47:28;;;;;;;22.65;11.93;;;;;;;4.43;45.38;95224.56;5154347;27;20202;-75
2021/01/20 09:49:54;;;;;;;25.83;12.43;;;;;;;4.58;44.87;95236.66;5154335;27;20173;-75
2021/01/20 09:52:20;;;;;;;25.60;13.60;;;;;;;4.45;44.63;95227.69;5154440;27;20168;-74
2021/01/20 09:54:46;;;;;;;26.05;13.23;;;;;;;4.49;44.30;95219.94;5135900;27;20294;-74
2021/01/20 09:57:11;;;;;;;29.33;15.27;;;;;;;4.29;45.36;95223.78;5135874;27;20203;-74
2021/01/20 09:59:37;;;;;;;33.13;15.77;;;;;;;4.35;44.81;95217.31;5153843;27;20175;-74
2021/01/20 10:02:02;;;;;;;33.20;13.77;;;;;;;4.49;45.35;95219.94;5154205;27;20256;-74
2021/01/20 10:04:28;;;;;;;34.83;15.80;;;;;;;4.62;44.53;95218.34;5154176;27;20171;-74
2021/01/20 10:06:53;;;;;;;39.03;17.70;;;;;;;4.76;44.83;95211.13;5153731;27;20183;-74
2021/01/20 10:09:20;;;;;;;31.97;16.93;;;;;;;4.86;43.72;95200.31;5154001;27;20176;-74
2021/01/20 10:11:45;;;;;;;45.00;18.45;;;;;;;4.86;45.06;95197.66;5153746;27;20164;-74
2021/01/20 10:14:11;;;;;;;42.00;17.40;;;;;;;4.80;44.13;95193.56;5153954;27;20621;-73
2021/01/20 10:16:36;;;;;;;44.07;18.10;;;;;;;5.03;43.34;95187.19;5153863;27;20164;-73
2021/01/20 10:19:02;;;;;;;38.70;16.43;;;;;;;5.45;43.21;95193.03;5153963;27;20160;-73
2021/01/20 10:21:27;;;;;;;36.60;17.33;;;;;;;5.53;43.08;95187.00;5153414;27;20168;-73
2021/01/20 10:23:53;;;;;;;32.80;16.20;;;;;;;5.79;42.06;95181.81;5153588;27;20240;-73
2021/01/20 10:26:24;;;;;;;36.87;17.20;;;;;;;5.65;43.14;95181.13;5153514;27;20243;-73
2021/01/20 10:28:49;;;;;;;33.83;17.27;;;;;;;6.06;42.41;95188.78;5153605;27;20200;-72
2021/01/20 10:31:15;;;;;;;38.53;16.03;;;;;;;6.20;42.14;95179.91;5134364;27;20459;-72
2021/01/20 10:33:41;;;;;;;33.90;15.83;;;;;;;6.21;41.61;95187.53;5153580;27;20173;-73
2021/01/20 10:36:07;;;;;;;27.70;14.87;;;;;;;6.15;41.51;95182.69;5153558;27;20258;-74
2021/01/20 10:38:32;;;;;;;26.53;14.73;;;;;;;5.74;41.26;95175.88;5153243;27;21081;-74
2021/01/20 10:40:58;;;;;;;31.27;14.60;;;;;;;5.57;42.49;95180.00;5153306;27;20165;-74
2021/01/20 10:43:23;;;;;;;34.37;13.77;;;;;;;5.67;42.62;95178.16;5153254;27;20176;-74
2021/01/20 10:45:49;;;;;;;30.07;16.77;;;;;;;5.81;43.02;95169.03;5153366;27;20172;-73
2021/01/20 10:48:14;;;;;;;34.50;14.97;;;;;;;5.84;43.47;95163.13;5149784;27;20208;-74
2021/01/20 10:50:40;;;;;;;39.73;14.80;;;;;;;5.71;43.38;95171.16;5132701;27;20660;-73
2021/01/20 10:53:05;;;;;;;39.87;16.27;;;;;;;5.61;44.02;95169.56;5114018;27;20242;-73
2021/01/20 10:55:31;;;;;;;40.77;15.40;;;;;;;5.65;43.04;95154.63;5132445;27;20600;-73
2021/01/20 10:57:56;;;;;;;33.67;14.07;;;;;;;5.57;44.17;95158.81;5132424;27;20176;-73
2021/01/20 11:00:22;;;;;;;30.77;16.40;;;;;;;5.46;44.18;95176.06;5132281;27;20193;-74
2021/01/20 11:02:48;;;;;;;32.07;14.10;;;;;;;5.67;43.18;95162.25;5132240;27;20169;-72
2021/01/20 11:05:13;;;;;;;29.77;14.40;;;;;;;5.65;43.18;95164.44;5132143;27;20429;-73
2021/01/20 11:07:39;;;;;;;33.43;15.20;;;;;;;5.46;44.72;95160.16;5132156;27;20710;-73
2021/01/20 11:10:05;;;;;;;32.80;13.47;;;;;;;5.46;45.02;95154.09;5132177;27;20575;-73
2021/01/20 11:12:31;;;;;;;28.70;13.53;;;;;;;5.54;43.79;95146.16;5132437;27;20174;-73
2021/01/20 11:14:56;;;;;;;26.60;12.63;;;;;;;5.51;44.11;95146.78;5132072;27;20438;-74
2021/01/20 11:17:22;;;;;;;30.03;13.13;;;;;;;5.71;43.15;95134.84;5132207;28;20234;-73
2021/01/20 11:19:47;;;;;;;31.63;13.80;;;;;;;5.78;42.75;95139.69;5132423;28;20724;-73
2021/01/20 11:22:13;;;;;;;36.67;16.27;;;;;;;5.40;43.31;95148.16;5132100;28;20161;-72
2021/01/20 11:24:38;;;;;;;32.00;15.10;;;;;;;5.31;43.39;95145.44;5132322;28;20165;-73
2021/01/20 11:27:04;;;;;;;34.03;15.60;;;;;;;5.43;43.03;95142.22;5131699;28;20177;-75